Bellport, New York
Current Conditions -  °F | °C
As of 12:56 AM on Sunday 21 Dec 2014 (Local Time) from KHWV Reporting Station
Overcast Overcast  
Wind Chill: 33°   Ceiling: 2400
Heat Index: 33°   Visibility: 9mi
Dew Point: 27°   Wind: 3mph
Humidity: 78%   Direction: 260°W
Pressure: 30.27"   Gusts: NA
Location:  40.76°N, 72.94°W
Report Text: KHWV 210556Z AUTO 26003KT 9SM OVC024 01/M03 A3027 RMK AO2 SLP253 T00061028 10006 20000 56006 TSNO
Loading
Personal Weather Stations






























Interactive Weather Map New forecast layout! Learn more

10-Day Weather Forecast

Advertisements
Track Severe Weather on mobile